sensor_id;sensor_type;location;lat;lon;timestamp;P1;durP1;ratioP1;P2;durP2;ratioP2
46417;SDS011;69884;64.758;20.962;2023-08-12T00:01:43;5.77;;;2.23;;
46417;SDS011;69884;64.758;20.962;2023-08-12T00:07:02;3.10;;;1.60;;
46417;SDS011;69884;64.758;20.962;2023-08-12T00:09:54;3.85;;;1.50;;
46417;SDS011;69884;64.758;20.962;2023-08-12T00:12:33;4.57;;;1.83;;
46417;SDS011;69884;64.758;20.962;2023-08-12T00:15:27;4.22;;;1.85;;
46417;SDS011;69884;64.758;20.962;2023-08-12T00:24:33;4.22;;;1.70;;
46417;SDS011;69884;64.758;20.962;2023-08-12T00:27:14;2.42;;;1.40;;
46417;SDS011;69884;64.758;20.962;2023-08-12T00:29:42;4.47;;;1.60;;
46417;SDS011;69884;64.758;20.962;2023-08-12T00:32:25;3.05;;;1.60;;
46417;SDS011;69884;64.758;20.962;2023-08-12T00:34:51;4.53;;;2.10;;
46417;SDS011;69884;64.758;20.962;2023-08-12T00:40:22;4.53;;;1.88;;
46417;SDS011;69884;64.758;20.962;2023-08-12T00:42:59;4.22;;;1.83;;
46417;SDS011;69884;64.758;20.962;2023-08-12T00:45:35;4.23;;;2.07;;
46417;SDS011;69884;64.758;20.962;2023-08-12T00:48:03;3.20;;;1.70;;
46417;SDS011;69884;64.758;20.962;2023-08-12T00:50:32;4.35;;;1.83;;
46417;SDS011;69884;64.758;20.962;2023-08-12T00:55:59;2.50;;;1.67;;
46417;SDS011;69884;64.758;20.962;2023-08-12T00:58:28;3.70;;;2.08;;
46417;SDS011;69884;64.758;20.962;2023-08-12T01:00:58;3.75;;;1.85;;
46417;SDS011;69884;64.758;20.962;2023-08-12T01:03:46;4.63;;;1.80;;
46417;SDS011;69884;64.758;20.962;2023-08-12T01:06:14;2.85;;;1.70;;
46417;SDS011;69884;64.758;20.962;2023-08-12T01:08:42;3.07;;;1.80;;
46417;SDS011;69884;64.758;20.962;2023-08-12T01:11:16;3.90;;;1.50;;
46417;SDS011;69884;64.758;20.962;2023-08-12T01:13:58;4.32;;;1.92;;
46417;SDS011;69884;64.758;20.962;2023-08-12T01:16:26;4.63;;;1.83;;
46417;SDS011;69884;64.758;20.962;2023-08-12T01:19:02;3.63;;;1.73;;
46417;SDS011;69884;64.758;20.962;2023-08-12T01:21:46;3.30;;;1.77;;
46417;SDS011;69884;64.758;20.962;2023-08-12T01:24:24;4.80;;;1.85;;
46417;SDS011;69884;64.758;20.962;2023-08-12T01:29:31;2.75;;;1.88;;
46417;SDS011;69884;64.758;20.962;2023-08-12T01:37:37;3.97;;;1.88;;
46417;SDS011;69884;64.758;20.962;2023-08-12T01:40:09;3.37;;;1.67;;
46417;SDS011;69884;64.758;20.962;2023-08-12T01:42:46;3.73;;;2.10;;
46417;SDS011;69884;64.758;20.962;2023-08-12T01:45:11;3.03;;;2.10;;
46417;SDS011;69884;64.758;20.962;2023-08-12T01:47:37;3.83;;;1.60;;
46417;SDS011;69884;64.758;20.962;2023-08-12T01:50:02;4.03;;;1.70;;
46417;SDS011;69884;64.758;20.962;2023-08-12T01:52:31;2.67;;;1.50;;
46417;SDS011;69884;64.758;20.962;2023-08-12T01:54:57;3.57;;;2.00;;
46417;SDS011;69884;64.758;20.962;2023-08-12T01:57:22;4.28;;;2.10;;
46417;SDS011;69884;64.758;20.962;2023-08-12T01:59:50;3.43;;;1.70;;
46417;SDS011;69884;64.758;20.962;2023-08-12T02:02:18;3.33;;;1.70;;
46417;SDS011;69884;64.758;20.962;2023-08-12T02:04:51;3.83;;;1.93;;
46417;SDS011;69884;64.758;20.962;2023-08-12T02:07:22;3.55;;;1.85;;
46417;SDS011;69884;64.758;20.962;2023-08-12T02:09:50;2.97;;;1.58;;
46417;SDS011;69884;64.758;20.962;2023-08-12T02:12:18;2.53;;;1.93;;
46417;SDS011;69884;64.758;20.962;2023-08-12T02:14:43;3.63;;;1.80;;
46417;SDS011;69884;64.758;20.962;2023-08-12T02:17:08;3.60;;;1.70;;
46417;SDS011;69884;64.758;20.962;2023-08-12T02:19:34;2.88;;;2.10;;
46417;SDS011;69884;64.758;20.962;2023-08-12T02:22:00;4.17;;;2.17;;
46417;SDS011;69884;64.758;20.962;2023-08-12T02:24:26;3.85;;;1.90;;
46417;SDS011;69884;64.758;20.962;2023-08-12T02:26:52;4.97;;;1.90;;
46417;SDS011;69884;64.758;20.962;2023-08-12T02:29:17;5.20;;;2.45;;
46417;SDS011;69884;64.758;20.962;2023-08-12T02:31:42;3.70;;;2.17;;
46417;SDS011;69884;64.758;20.962;2023-08-12T02:34:08;3.20;;;1.70;;
46417;SDS011;69884;64.758;20.962;2023-08-12T02:36:33;2.63;;;1.85;;
46417;SDS011;69884;64.758;20.962;2023-08-12T02:38:59;5.23;;;2.00;;
46417;SDS011;69884;64.758;20.962;2023-08-12T02:41:29;4.88;;;2.47;;
46417;SDS011;69884;64.758;20.962;2023-08-12T02:43:57;3.75;;;1.95;;
46417;SDS011;69884;64.758;20.962;2023-08-12T02:46:22;4.82;;;2.40;;
46417;SDS011;69884;64.758;20.962;2023-08-12T02:48:50;3.95;;;1.80;;
46417;SDS011;69884;64.758;20.962;2023-08-12T02:51:18;4.57;;;2.20;;
46417;SDS011;69884;64.758;20.962;2023-08-12T02:53:44;4.38;;;2.10;;
46417;SDS011;69884;64.758;20.962;2023-08-12T02:56:09;3.97;;;2.40;;
46417;SDS011;69884;64.758;20.962;2023-08-12T02:58:37;4.43;;;1.80;;
46417;SDS011;69884;64.758;20.962;2023-08-12T03:01:03;4.07;;;1.77;;
46417;SDS011;69884;64.758;20.962;2023-08-12T03:03:32;5.07;;;2.08;;
46417;SDS011;69884;64.758;20.962;2023-08-12T03:06:08;3.47;;;1.90;;
46417;SDS011;69884;64.758;20.962;2023-08-12T03:08:36;3.47;;;1.80;;
46417;SDS011;69884;64.758;20.962;2023-08-12T03:11:02;3.95;;;1.90;;
46417;SDS011;69884;64.758;20.962;2023-08-12T03:13:27;6.88;;;2.30;;
46417;SDS011;69884;64.758;20.962;2023-08-12T03:15:55;5.95;;;2.17;;
46417;SDS011;69884;64.758;20.962;2023-08-12T03:18:21;6.93;;;2.27;;
46417;SDS011;69884;64.758;20.962;2023-08-12T03:20:49;4.80;;;2.40;;
46417;SDS011;69884;64.758;20.962;2023-08-12T03:23:18;5.50;;;2.25;;
46417;SDS011;69884;64.758;20.962;2023-08-12T03:25:48;5.00;;;2.15;;
46417;SDS011;69884;64.758;20.962;2023-08-12T03:28:14;5.13;;;2.10;;
46417;SDS011;69884;64.758;20.962;2023-08-12T03:30:41;4.60;;;2.05;;
46417;SDS011;69884;64.758;20.962;2023-08-12T03:33:07;4.03;;;2.30;;
46417;SDS011;69884;64.758;20.962;2023-08-12T03:35:53;5.17;;;2.50;;
46417;SDS011;69884;64.758;20.962;2023-08-12T03:38:20;5.13;;;2.22;;
46417;SDS011;69884;64.758;20.962;2023-08-12T03:40:48;6.28;;;2.22;;
46417;SDS011;69884;64.758;20.962;2023-08-12T03:43:14;4.13;;;2.00;;
46417;SDS011;69884;64.758;20.962;2023-08-12T03:45:40;5.93;;;2.07;;
46417;SDS011;69884;64.758;20.962;2023-08-12T03:48:06;7.32;;;2.40;;
46417;SDS011;69884;64.758;20.962;2023-08-12T03:50:50;6.23;;;2.40;;
46417;SDS011;69884;64.758;20.962;2023-08-12T03:53:15;5.00;;;2.30;;
46417;SDS011;69884;64.758;20.962;2023-08-12T03:55:45;7.80;;;2.27;;
46417;SDS011;69884;64.758;20.962;2023-08-12T03:58:11;7.40;;;2.55;;
46417;SDS011;69884;64.758;20.962;2023-08-12T04:00:40;4.88;;;2.30;;
46417;SDS011;69884;64.758;20.962;2023-08-12T04:03:05;4.60;;;2.22;;
46417;SDS011;69884;64.758;20.962;2023-08-12T04:05:30;8.93;;;2.90;;
46417;SDS011;69884;64.758;20.962;2023-08-12T04:08:07;8.10;;;2.50;;
46417;SDS011;69884;64.758;20.962;2023-08-12T04:10:38;6.45;;;2.30;;
46417;SDS011;69884;64.758;20.962;2023-08-12T04:13:10;8.07;;;2.72;;
46417;SDS011;69884;64.758;20.962;2023-08-12T04:15:47;7.53;;;2.60;;
46417;SDS011;69884;64.758;20.962;2023-08-12T04:21:11;8.68;;;2.97;;
46417;SDS011;69884;64.758;20.962;2023-08-12T04:23:48;7.15;;;2.35;;
46417;SDS011;69884;64.758;20.962;2023-08-12T04:29:04;8.45;;;2.58;;
46417;SDS011;69884;64.758;20.962;2023-08-12T04:31:37;10.20;;;2.92;;
46417;SDS011;69884;64.758;20.962;2023-08-12T04:34:26;7.80;;;2.80;;
46417;SDS011;69884;64.758;20.962;2023-08-12T04:37:13;10.70;;;3.30;;
46417;SDS011;69884;64.758;20.962;2023-08-12T04:39:40;9.63;;;2.58;;
46417;SDS011;69884;64.758;20.962;2023-08-12T04:42:12;7.13;;;2.13;;
46417;SDS011;69884;64.758;20.962;2023-08-12T04:44:37;10.50;;;2.80;;
46417;SDS011;69884;64.758;20.962;2023-08-12T04:47:03;8.15;;;2.30;;
46417;SDS011;69884;64.758;20.962;2023-08-12T04:49:31;8.20;;;2.53;;
46417;SDS011;69884;64.758;20.962;2023-08-12T04:51:59;5.80;;;2.47;;
46417;SDS011;69884;64.758;20.962;2023-08-12T04:54:24;6.57;;;2.30;;
46417;SDS011;69884;64.758;20.962;2023-08-12T04:56:57;4.57;;;2.30;;
46417;SDS011;69884;64.758;20.962;2023-08-12T04:59:25;6.40;;;2.75;;
46417;SDS011;69884;64.758;20.962;2023-08-12T05:01:50;5.10;;;1.80;;
46417;SDS011;69884;64.758;20.962;2023-08-12T05:04:16;6.05;;;2.20;;
46417;SDS011;69884;64.758;20.962;2023-08-12T05:06:49;6.43;;;1.95;;
46417;SDS011;69884;64.758;20.962;2023-08-12T05:09:17;7.32;;;2.33;;
46417;SDS011;69884;64.758;20.962;2023-08-12T05:11:58;6.83;;;2.10;;
46417;SDS011;69884;64.758;20.962;2023-08-12T05:14:26;5.57;;;1.80;;
46417;SDS011;69884;64.758;20.962;2023-08-12T05:16:54;5.30;;;1.98;;
46417;SDS011;69884;64.758;20.962;2023-08-12T05:19:19;6.37;;;1.80;;
46417;SDS011;69884;64.758;20.962;2023-08-12T05:21:45;6.68;;;2.00;;
46417;SDS011;69884;64.758;20.962;2023-08-12T05:24:12;6.07;;;2.10;;
46417;SDS011;69884;64.758;20.962;2023-08-12T05:26:56;4.60;;;1.90;;
46417;SDS011;69884;64.758;20.962;2023-08-12T05:29:23;6.45;;;2.03;;
46417;SDS011;69884;64.758;20.962;2023-08-12T05:31:54;8.63;;;2.00;;
46417;SDS011;69884;64.758;20.962;2023-08-12T05:34:22;7.32;;;2.22;;
46417;SDS011;69884;64.758;20.962;2023-08-12T05:36:53;4.82;;;1.77;;
46417;SDS011;69884;64.758;20.962;2023-08-12T05:39:21;5.70;;;1.67;;
46417;SDS011;69884;64.758;20.962;2023-08-12T05:41:46;6.20;;;1.90;;
46417;SDS011;69884;64.758;20.962;2023-08-12T05:44:14;4.53;;;1.83;;
46417;SDS011;69884;64.758;20.962;2023-08-12T05:46:42;4.85;;;2.00;;
46417;SDS011;69884;64.758;20.962;2023-08-12T05:49:17;7.17;;;2.00;;
46417;SDS011;69884;64.758;20.962;2023-08-12T05:54:40;6.28;;;1.90;;
46417;SDS011;69884;64.758;20.962;2023-08-12T05:57:11;6.63;;;1.70;;
46417;SDS011;69884;64.758;20.962;2023-08-12T05:59:37;5.47;;;1.85;;
46417;SDS011;69884;64.758;20.962;2023-08-12T06:02:02;4.72;;;1.83;;
46417;SDS011;69884;64.758;20.962;2023-08-12T06:04:28;5.85;;;1.50;;
46417;SDS011;69884;64.758;20.962;2023-08-12T06:07:02;5.50;;;1.80;;
46417;SDS011;69884;64.758;20.962;2023-08-12T06:09:27;5.68;;;1.70;;
46417;SDS011;69884;64.758;20.962;2023-08-12T06:11:58;4.78;;;1.70;;
46417;SDS011;69884;64.758;20.962;2023-08-12T06:14:29;7.83;;;1.50;;
46417;SDS011;69884;64.758;20.962;2023-08-12T06:16:57;5.35;;;1.73;;
46417;SDS011;69884;64.758;20.962;2023-08-12T06:19:26;5.45;;;1.73;;
46417;SDS011;69884;64.758;20.962;2023-08-12T06:21:53;3.72;;;1.20;;
46417;SDS011;69884;64.758;20.962;2023-08-12T06:24:21;5.13;;;1.70;;
46417;SDS011;69884;64.758;20.962;2023-08-12T06:26:49;6.53;;;1.53;;
46417;SDS011;69884;64.758;20.962;2023-08-12T06:29:17;6.97;;;1.80;;
46417;SDS011;69884;64.758;20.962;2023-08-12T06:31:42;5.13;;;1.80;;
46417;SDS011;69884;64.758;20.962;2023-08-12T06:34:08;7.33;;;1.90;;
46417;SDS011;69884;64.758;20.962;2023-08-12T06:36:33;5.07;;;1.80;;
46417;SDS011;69884;64.758;20.962;2023-08-12T06:38:58;8.02;;;1.90;;
46417;SDS011;69884;64.758;20.962;2023-08-12T06:41:24;3.53;;;1.43;;
46417;SDS011;69884;64.758;20.962;2023-08-12T06:43:49;6.17;;;1.70;;
46417;SDS011;69884;64.758;20.962;2023-08-12T06:46:15;5.70;;;1.70;;
46417;SDS011;69884;64.758;20.962;2023-08-12T06:48:40;4.20;;;1.43;;
46417;SDS011;69884;64.758;20.962;2023-08-12T06:51:05;3.97;;;1.50;;
46417;SDS011;69884;64.758;20.962;2023-08-12T06:53:35;3.67;;;1.33;;
46417;SDS011;69884;64.758;20.962;2023-08-12T06:56:01;3.97;;;1.40;;
46417;SDS011;69884;64.758;20.962;2023-08-12T06:58:26;3.90;;;1.47;;
46417;SDS011;69884;64.758;20.962;2023-08-12T07:00:52;3.70;;;1.30;;
46417;SDS011;69884;64.758;20.962;2023-08-12T07:03:18;2.90;;;1.30;;
46417;SDS011;69884;64.758;20.962;2023-08-12T07:05:43;4.10;;;1.20;;
46417;SDS011;69884;64.758;20.962;2023-08-12T07:08:08;4.90;;;1.10;;
46417;SDS011;69884;64.758;20.962;2023-08-12T07:10:34;5.38;;;1.33;;
46417;SDS011;69884;64.758;20.962;2023-08-12T07:15:39;4.18;;;1.17;;
46417;SDS011;69884;64.758;20.962;2023-08-12T07:23:24;3.28;;;1.10;;
46417;SDS011;69884;64.758;20.962;2023-08-12T07:25:49;4.40;;;1.20;;
46417;SDS011;69884;64.758;20.962;2023-08-12T07:28:15;2.87;;;1.00;;
46417;SDS011;69884;64.758;20.962;2023-08-12T07:30:40;2.80;;;1.10;;
46417;SDS011;69884;64.758;20.962;2023-08-12T07:33:08;3.73;;;1.20;;
46417;SDS011;69884;64.758;20.962;2023-08-12T07:35:36;1.85;;;0.88;;
46417;SDS011;69884;64.758;20.962;2023-08-12T07:38:01;1.90;;;0.90;;
46417;SDS011;69884;64.758;20.962;2023-08-12T07:40:27;1.92;;;1.00;;
46417;SDS011;69884;64.758;20.962;2023-08-12T07:42:55;3.00;;;0.90;;
46417;SDS011;69884;64.758;20.962;2023-08-12T07:45:21;3.03;;;0.90;;
46417;SDS011;69884;64.758;20.962;2023-08-12T07:48:13;3.10;;;1.08;;
46417;SDS011;69884;64.758;20.962;2023-08-12T08:11:56;3.28;;;1.00;;
46417;SDS011;69884;64.758;20.962;2023-08-12T08:22:11;3.20;;;1.10;;
46417;SDS011;69884;64.758;20.962;2023-08-12T08:30:40;1.92;;;0.80;;
46417;SDS011;69884;64.758;20.962;2023-08-12T08:33:07;2.28;;;0.80;;
46417;SDS011;69884;64.758;20.962;2023-08-12T08:35:33;2.38;;;1.00;;
46417;SDS011;69884;64.758;20.962;2023-08-12T08:37:58;1.43;;;0.73;;
46417;SDS011;69884;64.758;20.962;2023-08-12T08:40:23;2.30;;;0.70;;
46417;SDS011;69884;64.758;20.962;2023-08-12T08:42:53;2.30;;;0.90;;
46417;SDS011;69884;64.758;20.962;2023-08-12T08:45:19;3.58;;;0.80;;
46417;SDS011;69884;64.758;20.962;2023-08-12T08:47:45;2.42;;;0.73;;
46417;SDS011;69884;64.758;20.962;2023-08-12T08:50:11;1.67;;;0.80;;
46417;SDS011;69884;64.758;20.962;2023-08-12T08:52:37;2.03;;;0.80;;
46417;SDS011;69884;64.758;20.962;2023-08-12T08:55:03;2.00;;;1.00;;
46417;SDS011;69884;64.758;20.962;2023-08-12T08:57:29;2.35;;;0.95;;
46417;SDS011;69884;64.758;20.962;2023-08-12T08:59:56;2.42;;;0.90;;
46417;SDS011;69884;64.758;20.962;2023-08-12T09:02:21;2.30;;;0.80;;
46417;SDS011;69884;64.758;20.962;2023-08-12T09:04:48;2.45;;;0.90;;
46417;SDS011;69884;64.758;20.962;2023-08-12T09:07:14;2.37;;;0.80;;
46417;SDS011;69884;64.758;20.962;2023-08-12T09:09:42;2.27;;;0.87;;
46417;SDS011;69884;64.758;20.962;2023-08-12T09:12:13;3.40;;;1.00;;
46417;SDS011;69884;64.758;20.962;2023-08-12T09:14:39;1.97;;;0.80;;
46417;SDS011;69884;64.758;20.962;2023-08-12T09:48:16;1.88;;;0.70;;
46417;SDS011;69884;64.758;20.962;2023-08-12T09:53:27;3.72;;;0.80;;
46417;SDS011;69884;64.758;20.962;2023-08-12T09:56:18;1.40;;;0.80;;
46417;SDS011;69884;64.758;20.962;2023-08-12T09:58:47;2.07;;;1.10;;
46417;SDS011;69884;64.758;20.962;2023-08-12T10:01:19;2.03;;;0.80;;
46417;SDS011;69884;64.758;20.962;2023-08-12T10:03:47;1.63;;;0.65;;
46417;SDS011;69884;64.758;20.962;2023-08-12T10:06:13;2.47;;;0.75;;
46417;SDS011;69884;64.758;20.962;2023-08-12T10:08:39;2.22;;;0.80;;
46417;SDS011;69884;64.758;20.962;2023-08-12T10:11:05;2.57;;;0.90;;
46417;SDS011;69884;64.758;20.962;2023-08-12T10:13:30;2.13;;;0.70;;
46417;SDS011;69884;64.758;20.962;2023-08-12T10:15:56;3.00;;;0.80;;
46417;SDS011;69884;64.758;20.962;2023-08-12T10:18:22;3.20;;;0.80;;
46417;SDS011;69884;64.758;20.962;2023-08-12T10:20:55;2.93;;;0.73;;
46417;SDS011;69884;64.758;20.962;2023-08-12T10:23:22;1.97;;;0.70;;
46417;SDS011;69884;64.758;20.962;2023-08-12T10:25:49;2.78;;;0.90;;
46417;SDS011;69884;64.758;20.962;2023-08-12T10:28:15;3.27;;;0.83;;
46417;SDS011;69884;64.758;20.962;2023-08-12T10:30:45;2.35;;;0.73;;
46417;SDS011;69884;64.758;20.962;2023-08-12T10:33:11;1.73;;;0.90;;
46417;SDS011;69884;64.758;20.962;2023-08-12T10:35:45;2.05;;;0.85;;
46417;SDS011;69884;64.758;20.962;2023-08-12T10:38:18;2.93;;;0.70;;
46417;SDS011;69884;64.758;20.962;2023-08-12T10:40:43;1.75;;;0.70;;
46417;SDS011;69884;64.758;20.962;2023-08-12T10:43:09;2.40;;;0.60;;
46417;SDS011;69884;64.758;20.962;2023-08-12T10:46:07;1.60;;;0.50;;
46417;SDS011;69884;64.758;20.962;2023-08-12T10:48:26;2.13;;;0.60;;
46417;SDS011;69884;64.758;20.962;2023-08-12T10:50:52;2.03;;;0.80;;
46417;SDS011;69884;64.758;20.962;2023-08-12T10:53:22;2.75;;;0.80;;
46417;SDS011;69884;64.758;20.962;2023-08-12T10:55:54;2.33;;;0.70;;
46417;SDS011;69884;64.758;20.962;2023-08-12T11:01:18;1.63;;;0.70;;
46417;SDS011;69884;64.758;20.962;2023-08-12T11:03:44;2.75;;;0.60;;
46417;SDS011;69884;64.758;20.962;2023-08-12T11:06:10;1.07;;;0.60;;
46417;SDS011;69884;64.758;20.962;2023-08-12T11:08:35;2.83;;;0.60;;
46417;SDS011;69884;64.758;20.962;2023-08-12T11:11:00;1.42;;;0.60;;
46417;SDS011;69884;64.758;20.962;2023-08-12T11:13:27;2.88;;;0.68;;
46417;SDS011;69884;64.758;20.962;2023-08-12T11:15:52;2.00;;;0.60;;
46417;SDS011;69884;64.758;20.962;2023-08-12T11:18:19;2.00;;;0.50;;
46417;SDS011;69884;64.758;20.962;2023-08-12T11:20:44;4.07;;;0.70;;
46417;SDS011;69884;64.758;20.962;2023-08-12T11:23:10;3.13;;;0.80;;
46417;SDS011;69884;64.758;20.962;2023-08-12T11:25:37;2.80;;;0.80;;
46417;SDS011;69884;64.758;20.962;2023-08-12T11:28:03;2.63;;;0.80;;
46417;SDS011;69884;64.758;20.962;2023-08-12T11:30:29;2.70;;;0.70;;
46417;SDS011;69884;64.758;20.962;2023-08-12T11:32:54;12.67;;;3.20;;
46417;SDS011;69884;64.758;20.962;2023-08-12T11:35:20;2.60;;;0.82;;
46417;SDS011;69884;64.758;20.962;2023-08-12T11:37:49;1.92;;;0.80;;
46417;SDS011;69884;64.758;20.962;2023-08-12T11:40:15;1.75;;;0.63;;
46417;SDS011;69884;64.758;20.962;2023-08-12T11:42:44;2.90;;;0.70;;
46417;SDS011;69884;64.758;20.962;2023-08-12T11:45:13;2.78;;;0.80;;
46417;SDS011;69884;64.758;20.962;2023-08-12T11:47:39;1.55;;;0.63;;
46417;SDS011;69884;64.758;20.962;2023-08-12T11:50:05;2.15;;;0.63;;
46417;SDS011;69884;64.758;20.962;2023-08-12T11:52:31;4.68;;;0.75;;
46417;SDS011;69884;64.758;20.962;2023-08-12T11:54:56;3.10;;;1.00;;
46417;SDS011;69884;64.758;20.962;2023-08-12T11:57:22;2.70;;;0.90;;
46417;SDS011;69884;64.758;20.962;2023-08-12T11:59:48;2.17;;;0.90;;
46417;SDS011;69884;64.758;20.962;2023-08-12T12:02:15;3.60;;;0.80;;
46417;SDS011;69884;64.758;20.962;2023-08-12T12:04:41;2.07;;;0.80;;
46417;SDS011;69884;64.758;20.962;2023-08-12T12:07:16;3.65;;;1.05;;
46417;SDS011;69884;64.758;20.962;2023-08-12T12:09:45;2.70;;;0.90;;
46417;SDS011;69884;64.758;20.962;2023-08-12T12:12:10;2.95;;;0.90;;
46417;SDS011;69884;64.758;20.962;2023-08-12T12:14:36;1.70;;;0.77;;
46417;SDS011;69884;64.758;20.962;2023-08-12T12:17:06;3.33;;;0.90;;
46417;SDS011;69884;64.758;20.962;2023-08-12T12:19:32;2.15;;;0.80;;
46417;SDS011;69884;64.758;20.962;2023-08-12T12:22:06;2.72;;;0.90;;
46417;SDS011;69884;64.758;20.962;2023-08-12T12:24:44;3.17;;;0.83;;
46417;SDS011;69884;64.758;20.962;2023-08-12T12:27:14;3.27;;;0.90;;
46417;SDS011;69884;64.758;20.962;2023-08-12T12:29:40;3.90;;;0.90;;
46417;SDS011;69884;64.758;20.962;2023-08-12T12:32:08;3.10;;;0.80;;
46417;SDS011;69884;64.758;20.962;2023-08-12T12:34:34;2.97;;;0.83;;
46417;SDS011;69884;64.758;20.962;2023-08-12T12:36:59;4.00;;;1.10;;
46417;SDS011;69884;64.758;20.962;2023-08-12T12:39:24;3.53;;;0.90;;
46417;SDS011;69884;64.758;20.962;2023-08-12T12:41:50;1.23;;;0.70;;
46417;SDS011;69884;64.758;20.962;2023-08-12T12:44:15;2.25;;;0.85;;
46417;SDS011;69884;64.758;20.962;2023-08-12T12:46:40;5.95;;;0.80;;
46417;SDS011;69884;64.758;20.962;2023-08-12T12:49:06;3.45;;;0.98;;
46417;SDS011;69884;64.758;20.962;2023-08-12T12:51:31;2.80;;;1.00;;
46417;SDS011;69884;64.758;20.962;2023-08-12T12:53:56;1.40;;;0.70;;
46417;SDS011;69884;64.758;20.962;2023-08-12T12:56:22;2.70;;;1.20;;
46417;SDS011;69884;64.758;20.962;2023-08-12T12:58:47;1.87;;;0.70;;
46417;SDS011;69884;64.758;20.962;2023-08-12T13:01:13;3.20;;;1.07;;
46417;SDS011;69884;64.758;20.962;2023-08-12T13:03:38;2.90;;;0.80;;
46417;SDS011;69884;64.758;20.962;2023-08-12T13:06:03;3.43;;;0.90;;
46417;SDS011;69884;64.758;20.962;2023-08-12T13:08:29;2.57;;;0.90;;
46417;SDS011;69884;64.758;20.962;2023-08-12T13:10:56;3.35;;;0.90;;
46417;SDS011;69884;64.758;20.962;2023-08-12T13:13:21;1.93;;;0.70;;
46417;SDS011;69884;64.758;20.962;2023-08-12T13:15:50;2.50;;;0.90;;
46417;SDS011;69884;64.758;20.962;2023-08-12T13:18:17;2.42;;;0.85;;
46417;SDS011;69884;64.758;20.962;2023-08-12T13:20:43;2.90;;;0.80;;
46417;SDS011;69884;64.758;20.962;2023-08-12T13:23:08;2.63;;;0.87;;
46417;SDS011;69884;64.758;20.962;2023-08-12T13:25:33;2.60;;;1.10;;
46417;SDS011;69884;64.758;20.962;2023-08-12T13:28:02;3.83;;;0.80;;
46417;SDS011;69884;64.758;20.962;2023-08-12T13:30:28;3.88;;;0.95;;
46417;SDS011;69884;64.758;20.962;2023-08-12T13:32:54;2.67;;;1.00;;
46417;SDS011;69884;64.758;20.962;2023-08-12T13:35:22;4.07;;;1.00;;
46417;SDS011;69884;64.758;20.962;2023-08-12T13:37:48;3.30;;;0.90;;
46417;SDS011;69884;64.758;20.962;2023-08-12T13:40:13;2.05;;;0.80;;
46417;SDS011;69884;64.758;20.962;2023-08-12T13:42:42;4.85;;;0.95;;
46417;SDS011;69884;64.758;20.962;2023-08-12T13:45:09;3.53;;;1.00;;
46417;SDS011;69884;64.758;20.962;2023-08-12T13:47:34;3.57;;;1.07;;
46417;SDS011;69884;64.758;20.962;2023-08-12T13:50:02;2.60;;;1.00;;
46417;SDS011;69884;64.758;20.962;2023-08-12T13:52:28;3.17;;;1.00;;
46417;SDS011;69884;64.758;20.962;2023-08-12T13:54:53;4.23;;;1.10;;
46417;SDS011;69884;64.758;20.962;2023-08-12T13:57:21;4.07;;;1.10;;
46417;SDS011;69884;64.758;20.962;2023-08-12T13:59:46;3.33;;;0.80;;
46417;SDS011;69884;64.758;20.962;2023-08-12T14:02:12;3.10;;;1.30;;
46417;SDS011;69884;64.758;20.962;2023-08-12T14:04:38;3.37;;;0.90;;
46417;SDS011;69884;64.758;20.962;2023-08-12T14:07:06;4.15;;;0.90;;
46417;SDS011;69884;64.758;20.962;2023-08-12T14:09:34;2.50;;;0.85;;
46417;SDS011;69884;64.758;20.962;2023-08-12T14:11:59;3.13;;;0.90;;
46417;SDS011;69884;64.758;20.962;2023-08-12T14:14:25;2.00;;;0.80;;
46417;SDS011;69884;64.758;20.962;2023-08-12T14:16:56;4.85;;;0.90;;
46417;SDS011;69884;64.758;20.962;2023-08-12T14:19:31;3.47;;;0.80;;
46417;SDS011;69884;64.758;20.962;2023-08-12T14:21:56;4.28;;;1.20;;
46417;SDS011;69884;64.758;20.962;2023-08-12T14:24:28;5.47;;;0.93;;
46417;SDS011;69884;64.758;20.962;2023-08-12T14:26:53;4.95;;;1.30;;
46417;SDS011;69884;64.758;20.962;2023-08-12T14:29:18;5.33;;;1.10;;
46417;SDS011;69884;64.758;20.962;2023-08-12T14:31:44;2.67;;;0.90;;
46417;SDS011;69884;64.758;20.962;2023-08-12T14:34:09;2.70;;;1.03;;
46417;SDS011;69884;64.758;20.962;2023-08-12T14:36:34;2.10;;;0.90;;
46417;SDS011;69884;64.758;20.962;2023-08-12T14:39:01;2.72;;;0.90;;
46417;SDS011;69884;64.758;20.962;2023-08-12T14:41:26;5.47;;;1.13;;
46417;SDS011;69884;64.758;20.962;2023-08-12T14:43:51;1.83;;;0.80;;
46417;SDS011;69884;64.758;20.962;2023-08-12T14:46:17;2.05;;;1.00;;
46417;SDS011;69884;64.758;20.962;2023-08-12T14:48:42;2.70;;;0.90;;
46417;SDS011;69884;64.758;20.962;2023-08-12T14:51:07;3.67;;;1.20;;
46417;SDS011;69884;64.758;20.962;2023-08-12T14:53:33;4.00;;;1.17;;
46417;SDS011;69884;64.758;20.962;2023-08-12T14:55:58;3.80;;;0.90;;
46417;SDS011;69884;64.758;20.962;2023-08-12T14:58:24;2.90;;;1.00;;
46417;SDS011;69884;64.758;20.962;2023-08-12T15:00:49;4.73;;;1.10;;
46417;SDS011;69884;64.758;20.962;2023-08-12T15:03:15;3.27;;;1.00;;
46417;SDS011;69884;64.758;20.962;2023-08-12T15:05:41;2.28;;;1.00;;
46417;SDS011;69884;64.758;20.962;2023-08-12T15:08:09;4.80;;;0.93;;
46417;SDS011;69884;64.758;20.962;2023-08-12T15:10:34;4.22;;;1.10;;
46417;SDS011;69884;64.758;20.962;2023-08-12T15:13:00;2.43;;;0.80;;
46417;SDS011;69884;64.758;20.962;2023-08-12T15:15:25;3.37;;;1.10;;
46417;SDS011;69884;64.758;20.962;2023-08-12T15:17:50;4.67;;;0.90;;
46417;SDS011;69884;64.758;20.962;2023-08-12T15:20:16;4.20;;;1.10;;
46417;SDS011;69884;64.758;20.962;2023-08-12T15:22:41;3.05;;;1.05;;
46417;SDS011;69884;64.758;20.962;2023-08-12T15:25:07;2.47;;;0.80;;
46417;SDS011;69884;64.758;20.962;2023-08-12T15:27:33;3.25;;;1.13;;
46417;SDS011;69884;64.758;20.962;2023-08-12T15:29:58;3.10;;;1.00;;
46417;SDS011;69884;64.758;20.962;2023-08-12T15:32:25;2.72;;;0.80;;
46417;SDS011;69884;64.758;20.962;2023-08-12T15:34:51;4.43;;;1.25;;
46417;SDS011;69884;64.758;20.962;2023-08-12T15:37:16;2.88;;;1.00;;
46417;SDS011;69884;64.758;20.962;2023-08-12T15:39:41;3.57;;;1.23;;
46417;SDS011;69884;64.758;20.962;2023-08-12T15:42:06;3.40;;;1.00;;
46417;SDS011;69884;64.758;20.962;2023-08-12T15:44:32;2.83;;;1.47;;
46417;SDS011;69884;64.758;20.962;2023-08-12T15:46:57;3.90;;;1.40;;
46417;SDS011;69884;64.758;20.962;2023-08-12T15:49:23;3.53;;;1.10;;
46417;SDS011;69884;64.758;20.962;2023-08-12T15:51:49;4.13;;;1.40;;
46417;SDS011;69884;64.758;20.962;2023-08-12T15:54:14;5.67;;;2.30;;
46417;SDS011;69884;64.758;20.962;2023-08-12T15:56:39;3.97;;;1.17;;
46417;SDS011;69884;64.758;20.962;2023-08-12T15:59:05;3.80;;;0.93;;
46417;SDS011;69884;64.758;20.962;2023-08-12T16:01:31;5.35;;;1.17;;
46417;SDS011;69884;64.758;20.962;2023-08-12T16:03:57;3.58;;;1.50;;
46417;SDS011;69884;64.758;20.962;2023-08-12T16:06:22;3.07;;;1.10;;
46417;SDS011;69884;64.758;20.962;2023-08-12T16:08:48;3.63;;;1.27;;
46417;SDS011;69884;64.758;20.962;2023-08-12T16:11:14;2.97;;;1.00;;
46417;SDS011;69884;64.758;20.962;2023-08-12T16:13:39;3.80;;;1.13;;
46417;SDS011;69884;64.758;20.962;2023-08-12T16:16:04;4.55;;;0.95;;
46417;SDS011;69884;64.758;20.962;2023-08-12T16:18:30;3.50;;;1.17;;
46417;SDS011;69884;64.758;20.962;2023-08-12T16:20:55;4.17;;;1.30;;
46417;SDS011;69884;64.758;20.962;2023-08-12T16:23:20;4.13;;;1.40;;
46417;SDS011;69884;64.758;20.962;2023-08-12T16:25:46;3.50;;;1.43;;
46417;SDS011;69884;64.758;20.962;2023-08-12T16:28:11;3.53;;;1.40;;
46417;SDS011;69884;64.758;20.962;2023-08-12T16:30:36;2.70;;;1.00;;